sensor_id;sensor_type;location;lat;lon;timestamp;pressure;altitude;pressure_sealevel;temperature;humidity
71299;BME280;59083;47.974;21.722;2023-04-04T00:02:33;100537.94;;;1.15;74.23
71299;BME280;59083;47.974;21.722;2023-04-04T00:05:34;100534.59;;;1.24;73.98
71299;BME280;59083;47.974;21.722;2023-04-04T00:08:35;100546.53;;;1.17;74.25
71299;BME280;59083;47.974;21.722;2023-04-04T00:11:37;100553.69;;;1.15;73.99
71299;BME280;59083;47.974;21.722;2023-04-04T00:14:38;100548.81;;;1.11;74.14
71299;BME280;59083;47.974;21.722;2023-04-04T00:17:40;100542.59;;;1.12;74.18
71299;BME280;59083;47.974;21.722;2023-04-04T00:20:41;100534.34;;;1.16;74.58
71299;BME280;59083;47.974;21.722;2023-04-04T00:23:42;100543.06;;;1.17;74.23
71299;BME280;59083;47.974;21.722;2023-04-04T00:26:43;100544.63;;;1.19;73.95
71299;BME280;59083;47.974;21.722;2023-04-04T00:29:44;100541.41;;;1.16;74.25
71299;BME280;59083;47.974;21.722;2023-04-04T00:32:47;100543.22;;;1.04;74.49
71299;BME280;59083;47.974;21.722;2023-04-04T00:35:48;100521.84;;;1.09;74.46
71299;BME280;59083;47.974;21.722;2023-04-04T00:38:49;100518.19;;;1.00;74.82
71299;BME280;59083;47.974;21.722;2023-04-04T00:41:51;100520.56;;;1.03;74.76
71299;BME280;59083;47.974;21.722;2023-04-04T00:44:52;100519.38;;;1.07;74.53
71299;BME280;59083;47.974;21.722;2023-04-04T00:47:54;100509.09;;;1.04;74.81
71299;BME280;59083;47.974;21.722;2023-04-04T00:50:56;100483.81;;;1.03;74.57
71299;BME280;59083;47.974;21.722;2023-04-04T00:53:57;100489.78;;;1.05;74.72
71299;BME280;59083;47.974;21.722;2023-04-04T00:57:00;100475.94;;;1.03;74.79
71299;BME280;59083;47.974;21.722;2023-04-04T01:00:02;100473.97;;;0.96;74.79
71299;BME280;59083;47.974;21.722;2023-04-04T01:03:05;100477.63;;;1.04;74.30
71299;BME280;59083;47.974;21.722;2023-04-04T01:06:08;100461.03;;;1.04;74.85
71299;BME280;59083;47.974;21.722;2023-04-04T01:09:09;100454.47;;;1.09;74.30
71299;BME280;59083;47.974;21.722;2023-04-04T01:12:11;100459.84;;;1.08;74.38
71299;BME280;59083;47.974;21.722;2023-04-04T01:15:12;100449.72;;;1.03;74.26
71299;BME280;59083;47.974;21.722;2023-04-04T01:18:16;100449.41;;;0.97;74.45
71299;BME280;59083;47.974;21.722;2023-04-04T01:21:20;100464.63;;;1.03;74.51
71299;BME280;59083;47.974;21.722;2023-04-04T01:24:24;100454.97;;;1.03;74.02
71299;BME280;59083;47.974;21.722;2023-04-04T01:27:28;100448.88;;;1.03;74.21
71299;BME280;59083;47.974;21.722;2023-04-04T01:30:34;100461.66;;;1.07;73.89
71299;BME280;59083;47.974;21.722;2023-04-04T01:33:45;100449.72;;;1.03;73.79
71299;BME280;59083;47.974;21.722;2023-04-04T01:37:00;100446.97;;;1.05;74.10
71299;BME280;59083;47.974;21.722;2023-04-04T01:43:12;100446.63;;;0.98;73.92
71299;BME280;59083;47.974;21.722;2023-04-04T01:46:17;100433.13;;;1.03;73.65
71299;BME280;59083;47.974;21.722;2023-04-04T01:49:20;100437.56;;;1.02;73.65
71299;BME280;59083;47.974;21.722;2023-04-04T01:52:22;100424.31;;;1.04;73.38
71299;BME280;59083;47.974;21.722;2023-04-04T01:55:23;100425.66;;;0.98;73.70
71299;BME280;59083;47.974;21.722;2023-04-04T01:58:24;100424.81;;;0.98;73.84
71299;BME280;59083;47.974;21.722;2023-04-04T02:01:26;100423.97;;;0.97;73.83
71299;BME280;59083;47.974;21.722;2023-04-04T02:04:28;100418.41;;;0.91;73.99
71299;BME280;59083;47.974;21.722;2023-04-04T02:07:30;100406.84;;;0.93;73.85
71299;BME280;59083;47.974;21.722;2023-04-04T02:10:31;100401.59;;;0.93;73.74
71299;BME280;59083;47.974;21.722;2023-04-04T02:13:32;100406.84;;;0.93;73.64
71299;BME280;59083;47.974;21.722;2023-04-04T02:16:34;100395.88;;;0.88;74.24
71299;BME280;59083;47.974;21.722;2023-04-04T02:19:35;100403.53;;;0.91;74.09
71299;BME280;59083;47.974;21.722;2023-04-04T02:22:36;100400.06;;;0.91;73.85
71299;BME280;59083;47.974;21.722;2023-04-04T02:25:37;100400.41;;;0.86;73.94
71299;BME280;59083;47.974;21.722;2023-04-04T02:28:39;100396.84;;;0.87;73.94
71299;BME280;59083;47.974;21.722;2023-04-04T02:31:40;100396.84;;;0.87;73.83
71299;BME280;59083;47.974;21.722;2023-04-04T02:34:42;100386.34;;;0.87;73.94
71299;BME280;59083;47.974;21.722;2023-04-04T02:37:44;100391.12;;;0.82;74.04
71299;BME280;59083;47.974;21.722;2023-04-04T02:40:49;100405.19;;;0.81;74.00
71299;BME280;59083;47.974;21.722;2023-04-04T02:43:50;100410.06;;;0.86;73.90
71299;BME280;59083;47.974;21.722;2023-04-04T02:46:52;100402.84;;;0.78;74.15
71299;BME280;59083;47.974;21.722;2023-04-04T02:49:56;100421.88;;;0.80;73.92
71299;BME280;59083;47.974;21.722;2023-04-04T02:52:59;100420.81;;;0.82;73.80
71299;BME280;59083;47.974;21.722;2023-04-04T02:56:02;100406.41;;;0.77;73.85
71299;BME280;59083;47.974;21.722;2023-04-04T02:59:04;100420.81;;;0.82;73.92
71299;BME280;59083;47.974;21.722;2023-04-04T03:02:05;100422.97;;;0.77;73.85
71299;BME280;59083;47.974;21.722;2023-04-04T03:05:07;100435.97;;;0.79;73.94
71299;BME280;59083;47.974;21.722;2023-04-04T03:08:08;100436.81;;;0.79;74.01
71299;BME280;59083;47.974;21.722;2023-04-04T03:11:09;100434.31;;;0.78;73.86
71299;BME280;59083;47.974;21.722;2023-04-04T03:14:10;100434.53;;;0.75;74.23
71299;BME280;59083;47.974;21.722;2023-04-04T03:17:13;100425.97;;;0.73;74.15
71299;BME280;59083;47.974;21.722;2023-04-04T03:20:17;100413.34;;;0.78;74.13
71299;BME280;59083;47.974;21.722;2023-04-04T03:23:19;100435.75;;;0.71;74.18
71299;BME280;59083;47.974;21.722;2023-04-04T03:26:20;100418.81;;;0.75;74.15
71299;BME280;59083;47.974;21.722;2023-04-04T03:29:22;100410.47;;;0.70;74.41
71299;BME280;59083;47.974;21.722;2023-04-04T03:32:24;100408.44;;;0.85;73.95
71299;BME280;59083;47.974;21.722;2023-04-04T03:35:25;100415.00;;;0.79;74.05
71299;BME280;59083;47.974;21.722;2023-04-04T03:38:28;100412.84;;;0.84;73.98
71299;BME280;59083;47.974;21.722;2023-04-04T03:41:29;100405.44;;;0.89;73.87
71299;BME280;59083;47.974;21.722;2023-04-04T03:44:30;100402.56;;;0.81;73.93
71299;BME280;59083;47.974;21.722;2023-04-04T03:47:32;100409.50;;;0.82;73.77
71299;BME280;59083;47.974;21.722;2023-04-04T03:50:34;100399.75;;;0.73;74.37
71299;BME280;59083;47.974;21.722;2023-04-04T03:53:36;100399.72;;;0.84;74.12
71299;BME280;59083;47.974;21.722;2023-04-04T03:56:38;100390.41;;;0.80;74.19
71299;BME280;59083;47.974;21.722;2023-04-04T03:59:39;100389.00;;;0.76;74.31
71299;BME280;59083;47.974;21.722;2023-04-04T04:02:40;100393.19;;;0.78;74.04
71299;BME280;59083;47.974;21.722;2023-04-04T04:05:42;100390.19;;;0.83;73.87
71299;BME280;59083;47.974;21.722;2023-04-04T04:08:43;100396.87;;;0.76;74.11
71299;BME280;59083;47.974;21.722;2023-04-04T04:11:45;100391.84;;;0.84;73.82
71299;BME280;59083;47.974;21.722;2023-04-04T04:14:46;100397.78;;;0.86;73.99
71299;BME280;59083;47.974;21.722;2023-04-04T04:17:47;100391.62;;;0.76;74.05
71299;BME280;59083;47.974;21.722;2023-04-04T04:20:49;100389.69;;;0.89;73.65
71299;BME280;59083;47.974;21.722;2023-04-04T04:23:50;100382.31;;;0.83;73.58
71299;BME280;59083;47.974;21.722;2023-04-04T04:26:52;100391.59;;;0.87;73.45
71299;BME280;59083;47.974;21.722;2023-04-04T04:29:54;100384.06;;;0.94;73.58
71299;BME280;59083;47.974;21.722;2023-04-04T04:32:57;100382.97;;;0.96;73.41
71299;BME280;59083;47.974;21.722;2023-04-04T04:36:04;100386.75;;;1.03;72.84
71299;BME280;59083;47.974;21.722;2023-04-04T04:39:06;100406.09;;;1.02;73.11
71299;BME280;59083;47.974;21.722;2023-04-04T04:42:08;100405.88;;;0.94;73.33
71299;BME280;59083;47.974;21.722;2023-04-04T04:45:10;100411.06;;;1.05;72.87
71299;BME280;59083;47.974;21.722;2023-04-04T04:48:14;100416.78;;;1.10;72.51
71299;BME280;59083;47.974;21.722;2023-04-04T04:51:17;100416.28;;;1.16;71.81
71299;BME280;59083;47.974;21.722;2023-04-04T04:54:19;100423.37;;;1.25;71.72
71299;BME280;59083;47.974;21.722;2023-04-04T04:57:22;100411.47;;;1.21;71.60
71299;BME280;59083;47.974;21.722;2023-04-04T05:00:23;100412.53;;;1.30;71.28
71299;BME280;59083;47.974;21.722;2023-04-04T05:03:25;100421.00;;;1.43;70.80
71299;BME280;59083;47.974;21.722;2023-04-04T05:06:27;100409.50;;;1.35;70.39
71299;BME280;59083;47.974;21.722;2023-04-04T05:09:29;100401.94;;;1.62;69.94
71299;BME280;59083;47.974;21.722;2023-04-04T05:12:31;100403.22;;;1.47;70.09
71299;BME280;59083;47.974;21.722;2023-04-04T05:15:33;100408.66;;;1.55;69.46
71299;BME280;59083;47.974;21.722;2023-04-04T05:18:34;100419.78;;;1.68;69.43
71299;BME280;59083;47.974;21.722;2023-04-04T05:21:37;100424.25;;;1.77;68.75
71299;BME280;59083;47.974;21.722;2023-04-04T05:24:39;100432.84;;;1.79;68.68
71299;BME280;59083;47.974;21.722;2023-04-04T05:27:46;100428.81;;;2.05;68.45
71299;BME280;59083;47.974;21.722;2023-04-04T05:30:49;100415.53;;;1.97;67.68
71299;BME280;59083;47.974;21.722;2023-04-04T05:33:50;100410.19;;;2.08;68.08
71299;BME280;59083;47.974;21.722;2023-04-04T05:36:53;100422.84;;;2.34;66.98
71299;BME280;59083;47.974;21.722;2023-04-04T05:39:54;100400.28;;;2.22;66.65
71299;BME280;59083;47.974;21.722;2023-04-04T05:42:57;100417.94;;;2.10;66.87
71299;BME280;59083;47.974;21.722;2023-04-04T05:45:59;100417.84;;;2.31;66.36
71299;BME280;59083;47.974;21.722;2023-04-04T05:49:01;100405.16;;;2.45;66.13
71299;BME280;59083;47.974;21.722;2023-04-04T05:52:03;100418.19;;;2.47;65.62
71299;BME280;59083;47.974;21.722;2023-04-04T05:55:05;100425.81;;;2.50;65.78
71299;BME280;59083;47.974;21.722;2023-04-04T05:58:07;100417.16;;;2.78;67.99
71299;BME280;59083;47.974;21.722;2023-04-04T06:01:11;100414.62;;;2.67;64.84
71299;BME280;59083;47.974;21.722;2023-04-04T06:04:13;100429.87;;;2.73;64.71
71299;BME280;59083;47.974;21.722;2023-04-04T06:07:14;100418.38;;;3.03;64.03
71299;BME280;59083;47.974;21.722;2023-04-04T06:10:17;100409.25;;;3.17;62.01
71299;BME280;59083;47.974;21.722;2023-04-04T06:13:19;100415.16;;;3.57;61.83
71299;BME280;59083;47.974;21.722;2023-04-04T06:16:22;100388.25;;;3.54;61.09
71299;BME280;59083;47.974;21.722;2023-04-04T06:19:23;100413.00;;;4.27;59.76
71299;BME280;59083;47.974;21.722;2023-04-04T06:22:25;100411.28;;;4.35;58.90
71299;BME280;59083;47.974;21.722;2023-04-04T06:25:27;100402.75;;;4.69;57.51
71299;BME280;59083;47.974;21.722;2023-04-04T06:28:30;100417.69;;;5.13;56.00
71299;BME280;59083;47.974;21.722;2023-04-04T06:31:31;100408.91;;;4.60;57.57
71299;BME280;59083;47.974;21.722;2023-04-04T06:34:33;100403.56;;;4.24;58.18
71299;BME280;59083;47.974;21.722;2023-04-04T06:37:35;100388.12;;;4.02;58.13
71299;BME280;59083;47.974;21.722;2023-04-04T06:40:38;100391.34;;;4.23;58.21
71299;BME280;59083;47.974;21.722;2023-04-04T06:43:39;100384.59;;;5.45;55.76
71299;BME280;59083;47.974;21.722;2023-04-04T06:46:41;100378.59;;;5.86;53.05
71299;BME280;59083;47.974;21.722;2023-04-04T06:49:43;100368.44;;;5.99;52.15
71299;BME280;59083;47.974;21.722;2023-04-04T06:52:45;100378.06;;;5.31;53.34
71299;BME280;59083;47.974;21.722;2023-04-04T06:55:46;100376.00;;;5.43;55.35
71299;BME280;59083;47.974;21.722;2023-04-04T06:58:49;100375.38;;;5.05;55.66
71299;BME280;59083;47.974;21.722;2023-04-04T07:01:51;100385.13;;;4.87;56.47
71299;BME280;59083;47.974;21.722;2023-04-04T07:04:53;100402.47;;;4.44;57.72
71299;BME280;59083;47.974;21.722;2023-04-04T07:07:54;100393.44;;;3.83;58.78
71299;BME280;59083;47.974;21.722;2023-04-04T07:10:57;100403.53;;;3.97;58.72
71299;BME280;59083;47.974;21.722;2023-04-04T07:13:59;100382.63;;;3.86;59.08
71299;BME280;59083;47.974;21.722;2023-04-04T07:17:01;100406.72;;;4.00;58.97
71299;BME280;59083;47.974;21.722;2023-04-04T07:20:04;100389.94;;;3.64;59.85
71299;BME280;59083;47.974;21.722;2023-04-04T07:23:06;100389.06;;;3.73;59.73
71299;BME280;59083;47.974;21.722;2023-04-04T07:26:07;100404.62;;;4.04;59.31
71299;BME280;59083;47.974;21.722;2023-04-04T07:29:09;100388.91;;;3.75;58.88
71299;BME280;59083;47.974;21.722;2023-04-04T07:32:11;100408.03;;;3.87;59.83
71299;BME280;59083;47.974;21.722;2023-04-04T07:35:12;100405.88;;;4.00;59.02
71299;BME280;59083;47.974;21.722;2023-04-04T07:38:13;100408.06;;;4.14;58.51
71299;BME280;59083;47.974;21.722;2023-04-04T07:41:14;100415.97;;;4.41;60.21
71299;BME280;59083;47.974;21.722;2023-04-04T07:44:16;100406.59;;;4.29;57.58
71299;BME280;59083;47.974;21.722;2023-04-04T07:47:17;100399.97;;;4.70;56.95
71299;BME280;59083;47.974;21.722;2023-04-04T07:50:18;100408.12;;;4.22;57.28
71299;BME280;59083;47.974;21.722;2023-04-04T07:53:20;100397.88;;;4.46;56.90
71299;BME280;59083;47.974;21.722;2023-04-04T07:56:21;100394.47;;;4.09;56.64
71299;BME280;59083;47.974;21.722;2023-04-04T07:59:22;100374.66;;;4.32;56.42
71299;BME280;59083;47.974;21.722;2023-04-04T08:02:24;100391.47;;;4.22;57.15
71299;BME280;59083;47.974;21.722;2023-04-04T08:05:26;100385.22;;;4.50;55.78
71299;BME280;59083;47.974;21.722;2023-04-04T08:08:27;100403.16;;;4.46;55.46
71299;BME280;59083;47.974;21.722;2023-04-04T08:11:29;100418.59;;;4.41;55.08
71299;BME280;59083;47.974;21.722;2023-04-04T08:14:30;100402.06;;;4.49;54.83
71299;BME280;59083;47.974;21.722;2023-04-04T08:17:33;100397.09;;;4.64;53.91
71299;BME280;59083;47.974;21.722;2023-04-04T08:20:34;100406.69;;;5.00;52.97
71299;BME280;59083;47.974;21.722;2023-04-04T08:23:35;100397.41;;;5.57;51.70
71299;BME280;59083;47.974;21.722;2023-04-04T08:26:37;100406.34;;;5.38;51.93
71299;BME280;59083;47.974;21.722;2023-04-04T08:29:38;100409.97;;;5.37;51.27
71299;BME280;59083;47.974;21.722;2023-04-04T08:32:40;100407.09;;;5.49;51.09
71299;BME280;59083;47.974;21.722;2023-04-04T08:35:43;100417.28;;;5.87;50.67
71299;BME280;59083;47.974;21.722;2023-04-04T08:38:44;100389.94;;;5.53;51.10
71299;BME280;59083;47.974;21.722;2023-04-04T08:41:45;100391.56;;;5.97;50.18
71299;BME280;59083;47.974;21.722;2023-04-04T08:44:48;100395.34;;;6.29;49.13
71299;BME280;59083;47.974;21.722;2023-04-04T08:47:55;100405.50;;;6.41;49.38
71299;BME280;59083;47.974;21.722;2023-04-04T08:50:59;100380.19;;;6.05;48.70
71299;BME280;59083;47.974;21.722;2023-04-04T08:54:02;100360.59;;;6.23;48.50
71299;BME280;59083;47.974;21.722;2023-04-04T08:57:03;100394.84;;;5.91;48.83
71299;BME280;59083;47.974;21.722;2023-04-04T09:00:05;100378.53;;;6.38;49.05
71299;BME280;59083;47.974;21.722;2023-04-04T09:03:27;100375.19;;;6.36;49.01
71299;BME280;59083;47.974;21.722;2023-04-04T09:06:29;100374.38;;;6.35;48.68
71299;BME280;59083;47.974;21.722;2023-04-04T09:09:32;100381.56;;;6.09;48.93
71299;BME280;59083;47.974;21.722;2023-04-04T09:12:37;100376.84;;;5.95;49.16
71299;BME280;59083;47.974;21.722;2023-04-04T09:15:44;100388.66;;;6.16;48.58
71299;BME280;59083;47.974;21.722;2023-04-04T09:18:46;100384.28;;;5.99;49.10
71299;BME280;59083;47.974;21.722;2023-04-04T09:21:48;100368.63;;;6.06;48.52
71299;BME280;59083;47.974;21.722;2023-04-04T09:24:49;100391.03;;;6.28;48.62
71299;BME280;59083;47.974;21.722;2023-04-04T09:27:51;100384.50;;;6.48;48.41
71299;BME280;59083;47.974;21.722;2023-04-04T09:30:53;100389.34;;;6.18;47.93
71299;BME280;59083;47.974;21.722;2023-04-04T09:33:57;100403.50;;;6.01;48.00
71299;BME280;59083;47.974;21.722;2023-04-04T09:36:58;100397.31;;;6.27;48.82
71299;BME280;59083;47.974;21.722;2023-04-04T09:40:00;100401.94;;;5.91;48.97
71299;BME280;59083;47.974;21.722;2023-04-04T09:43:03;100395.03;;;6.32;48.07
71299;BME280;59083;47.974;21.722;2023-04-04T09:46:06;100401.41;;;6.55;48.57
71299;BME280;59083;47.974;21.722;2023-04-04T09:49:18;100396.03;;;6.39;48.77
71299;BME280;59083;47.974;21.722;2023-04-04T09:52:20;100384.69;;;6.12;49.64
71299;BME280;59083;47.974;21.722;2023-04-04T09:55:30;100395.44;;;6.61;48.35
71299;BME280;59083;47.974;21.722;2023-04-04T09:58:31;100379.47;;;6.29;48.09
71299;BME280;59083;47.974;21.722;2023-04-04T10:01:36;100393.41;;;6.05;48.91
71299;BME280;59083;47.974;21.722;2023-04-04T10:04:38;100395.59;;;6.09;49.01
71299;BME280;59083;47.974;21.722;2023-04-04T10:07:39;100397.78;;;6.22;48.65
71299;BME280;59083;47.974;21.722;2023-04-04T10:13:51;100400.84;;;6.35;48.71
71299;BME280;59083;47.974;21.722;2023-04-04T10:16:55;100409.81;;;6.08;48.34
71299;BME280;59083;47.974;21.722;2023-04-04T10:19:59;100408.44;;;6.04;48.52
71299;BME280;59083;47.974;21.722;2023-04-04T10:23:02;100405.34;;;5.83;48.77
71299;BME280;59083;47.974;21.722;2023-04-04T10:26:05;100400.28;;;6.23;48.23
71299;BME280;59083;47.974;21.722;2023-04-04T10:29:06;100393.53;;;5.95;48.95
71299;BME280;59083;47.974;21.722;2023-04-04T10:32:15;100398.97;;;6.19;48.97
71299;BME280;59083;47.974;21.722;2023-04-04T10:35:20;100398.91;;;6.11;48.19
71299;BME280;59083;47.974;21.722;2023-04-04T10:38:25;100386.56;;;6.28;48.22
71299;BME280;59083;47.974;21.722;2023-04-04T10:41:30;100402.22;;;6.13;48.38
71299;BME280;59083;47.974;21.722;2023-04-04T10:44:37;100382.41;;;6.17;48.54
71299;BME280;59083;47.974;21.722;2023-04-04T10:47:40;100399.37;;;6.41;47.57
71299;BME280;59083;47.974;21.722;2023-04-04T10:50:41;100391.94;;;6.10;47.29
71299;BME280;59083;47.974;21.722;2023-04-04T10:53:43;100400.38;;;6.06;47.99
71299;BME280;59083;47.974;21.722;2023-04-04T10:56:45;100403.97;;;6.39;47.04
71299;BME280;59083;47.974;21.722;2023-04-04T11:00:07;100405.84;;;6.12;47.95
71299;BME280;59083;47.974;21.722;2023-04-04T11:03:10;100406.81;;;6.03;48.12
71299;BME280;59083;47.974;21.722;2023-04-04T11:06:13;100401.16;;;6.32;48.03
71299;BME280;59083;47.974;21.722;2023-04-04T11:09:51;100416.72;;;6.35;48.21
71299;BME280;59083;47.974;21.722;2023-04-04T11:12:53;100404.81;;;6.05;48.08
71299;BME280;59083;47.974;21.722;2023-04-04T11:18:58;100400.06;;;6.09;47.88
71299;BME280;59083;47.974;21.722;2023-04-04T11:21:59;100409.31;;;6.47;47.43
71299;BME280;59083;47.974;21.722;2023-04-04T11:25:32;100411.91;;;6.39;47.83
71299;BME280;59083;47.974;21.722;2023-04-04T11:31:42;100407.34;;;6.49;46.84
71299;BME280;59083;47.974;21.722;2023-04-04T11:34:44;100395.56;;;6.43;46.88
71299;BME280;59083;47.974;21.722;2023-04-04T11:40:56;100406.22;;;6.17;46.89
71299;BME280;59083;47.974;21.722;2023-04-04T11:44:07;100396.31;;;6.19;46.84
71299;BME280;59083;47.974;21.722;2023-04-04T11:47:10;100396.41;;;6.52;46.57
71299;BME280;59083;47.974;21.722;2023-04-04T11:50:13;100379.22;;;6.48;46.67
71299;BME280;59083;47.974;21.722;2023-04-04T11:53:14;100401.72;;;6.52;46.34
71299;BME280;59083;47.974;21.722;2023-04-04T11:56:18;100405.03;;;6.54;46.75
71299;BME280;59083;47.974;21.722;2023-04-04T11:59:21;100409.09;;;6.82;45.56
71299;BME280;59083;47.974;21.722;2023-04-04T12:02:25;100400.63;;;6.71;45.69
71299;BME280;59083;47.974;21.722;2023-04-04T12:05:34;100388.84;;;6.73;45.87
71299;BME280;59083;47.974;21.722;2023-04-04T12:08:35;100387.88;;;6.90;45.35
71299;BME280;59083;47.974;21.722;2023-04-04T12:11:37;100374.00;;;6.96;45.58
71299;BME280;59083;47.974;21.722;2023-04-04T12:14:38;100397.03;;;7.04;45.37
71299;BME280;59083;47.974;21.722;2023-04-04T12:17:40;100394.38;;;7.12;45.72
71299;BME280;59083;47.974;21.722;2023-04-04T12:20:46;100390.56;;;7.06;45.32
71299;BME280;59083;47.974;21.722;2023-04-04T12:23:48;100394.88;;;7.07;44.93
71299;BME280;59083;47.974;21.722;2023-04-04T12:26:51;100382.59;;;6.82;44.29
71299;BME280;59083;47.974;21.722;2023-04-04T12:29:53;100374.44;;;6.68;44.28
71299;BME280;59083;47.974;21.722;2023-04-04T12:32:54;100376.28;;;6.75;44.50
71299;BME280;59083;47.974;21.722;2023-04-04T12:35:56;100374.09;;;6.54;45.56
71299;BME280;59083;47.974;21.722;2023-04-04T12:39:03;100380.44;;;6.78;45.11
71299;BME280;59083;47.974;21.722;2023-04-04T12:42:04;100369.00;;;6.69;44.84
71299;BME280;59083;47.974;21.722;2023-04-04T12:45:07;100354.91;;;6.69;44.45
71299;BME280;59083;47.974;21.722;2023-04-04T12:48:13;100369.25;;;6.42;44.42
71299;BME280;59083;47.974;21.722;2023-04-04T12:51:14;100369.31;;;6.58;44.72
71299;BME280;59083;47.974;21.722;2023-04-04T12:54:26;100353.41;;;6.58;44.95
71299;BME280;59083;47.974;21.722;2023-04-04T12:57:28;100358.28;;;6.29;45.43
71299;BME280;59083;47.974;21.722;2023-04-04T13:00:30;100364.56;;;6.19;45.41
71299;BME280;59083;47.974;21.722;2023-04-04T13:03:32;100371.91;;;6.42;45.07
71299;BME280;59083;47.974;21.722;2023-04-04T13:06:36;100356.38;;;6.47;44.82
71299;BME280;59083;47.974;21.722;2023-04-04T13:09:50;100362.87;;;6.60;45.02
71299;BME280;59083;47.974;21.722;2023-04-04T13:12:56;100363.03;;;6.67;45.04
71299;BME280;59083;47.974;21.722;2023-04-04T13:15:58;100353.44;;;6.74;44.87
71299;BME280;59083;47.974;21.722;2023-04-04T13:19:00;100365.03;;;6.65;44.97
71299;BME280;59083;47.974;21.722;2023-04-04T13:22:01;100347.12;;;6.67;44.88
71299;BME280;59083;47.974;21.722;2023-04-04T13:25:04;100366.72;;;6.24;45.45
71299;BME280;59083;47.974;21.722;2023-04-04T13:28:05;100359.16;;;6.37;45.64
71299;BME280;59083;47.974;21.722;2023-04-04T13:31:08;100362.31;;;6.41;45.42
71299;BME280;59083;47.974;21.722;2023-04-04T13:34:12;100349.06;;;6.41;45.64
71299;BME280;59083;47.974;21.722;2023-04-04T13:37:13;100356.66;;;6.36;45.92
71299;BME280;59083;47.974;21.722;2023-04-04T13:40:14;100367.94;;;6.46;46.19
71299;BME280;59083;47.974;21.722;2023-04-04T13:43:16;100352.69;;;6.32;46.59
71299;BME280;59083;47.974;21.722;2023-04-04T13:46:17;100356.97;;;6.25;47.14
71299;BME280;59083;47.974;21.722;2023-04-04T13:49:18;100361.84;;;6.03;46.87
71299;BME280;59083;47.974;21.722;2023-04-04T13:52:19;100364.78;;;6.00;46.54
71299;BME280;59083;47.974;21.722;2023-04-04T13:55:21;100373.97;;;6.22;46.54
71299;BME280;59083;47.974;21.722;2023-04-04T13:58:22;100387.25;;;6.30;47.44
71299;BME280;59083;47.974;21.722;2023-04-04T14:01:23;100379.59;;;6.19;47.98
71299;BME280;59083;47.974;21.722;2023-04-04T14:04:24;100385.09;;;6.34;47.48
71299;BME280;59083;47.974;21.722;2023-04-04T14:07:26;100383.47;;;6.41;46.20
71299;BME280;59083;47.974;21.722;2023-04-04T14:10:27;100381.75;;;6.23;46.01
71299;BME280;59083;47.974;21.722;2023-04-04T14:13:28;100369.72;;;6.29;45.83
71299;BME280;59083;47.974;21.722;2023-04-04T14:16:29;100378.38;;;6.05;45.33
71299;BME280;59083;47.974;21.722;2023-04-04T14:19:30;100374.47;;;6.17;45.82
71299;BME280;59083;47.974;21.722;2023-04-04T14:22:32;100368.47;;;6.07;45.47
71299;BME280;59083;47.974;21.722;2023-04-04T14:25:33;100367.41;;;5.92;45.80
71299;BME280;59083;47.974;21.722;2023-04-04T14:28:35;100371.75;;;6.01;45.53
71299;BME280;59083;47.974;21.722;2023-04-04T14:31:37;100379.22;;;5.80;46.41
71299;BME280;59083;47.974;21.722;2023-04-04T14:34:38;100379.44;;;5.87;46.42
71299;BME280;59083;47.974;21.722;2023-04-04T14:37:39;100378.38;;;6.05;46.02
71299;BME280;59083;47.974;21.722;2023-04-04T14:40:40;100379.87;;;6.08;46.25
71299;BME280;59083;47.974;21.722;2023-04-04T14:43:42;100389.28;;;6.02;46.31
71299;BME280;59083;47.974;21.722;2023-04-04T14:46:43;100385.25;;;5.90;46.10
71299;BME280;59083;47.974;21.722;2023-04-04T14:49:44;100404.62;;;5.73;46.16
71299;BME280;59083;47.974;21.722;2023-04-04T14:52:46;100394.88;;;5.73;46.26
71299;BME280;59083;47.974;21.722;2023-04-04T14:55:50;100397.25;;;5.85;46.03
71299;BME280;59083;47.974;21.722;2023-04-04T14:58:52;100401.28;;;5.71;46.37
71299;BME280;59083;47.974;21.722;2023-04-04T15:01:55;100398.62;;;5.63;46.55
71299;BME280;59083;47.974;21.722;2023-04-04T15:04:57;100381.38;;;5.59;46.58
71299;BME280;59083;47.974;21.722;2023-04-04T15:07:58;100388.34;;;5.60;46.43
71299;BME280;59083;47.974;21.722;2023-04-04T15:10:59;100402.28;;;5.70;46.43
71299;BME280;59083;47.974;21.722;2023-04-04T15:14:02;100410.94;;;5.54;46.65
71299;BME280;59083;47.974;21.722;2023-04-04T15:17:03;100413.94;;;5.59;46.29
71299;BME280;59083;47.974;21.722;2023-04-04T15:20:05;100410.19;;;5.44;46.66
71299;BME280;59083;47.974;21.722;2023-04-04T15:23:07;100422.03;;;5.58;46.61
71299;BME280;59083;47.974;21.722;2023-04-04T15:26:08;100421.09;;;5.67;46.35
71299;BME280;59083;47.974;21.722;2023-04-04T15:29:09;100430.13;;;5.56;46.75
71299;BME280;59083;47.974;21.722;2023-04-04T15:32:10;100425.34;;;5.60;46.37
71299;BME280;59083;47.974;21.722;2023-04-04T15:35:17;100416.53;;;5.51;46.39
71299;BME280;59083;47.974;21.722;2023-04-04T15:38:18;100425.22;;;5.44;46.28
71299;BME280;59083;47.974;21.722;2023-04-04T15:41:19;100432.41;;;5.51;46.29
71299;BME280;59083;47.974;21.722;2023-04-04T15:44:21;100432.06;;;5.54;46.31
71299;BME280;59083;47.974;21.722;2023-04-04T15:47:22;100444.91;;;5.49;46.34
71299;BME280;59083;47.974;21.722;2023-04-04T15:50:23;100442.41;;;5.48;45.93
71299;BME280;59083;47.974;21.722;2023-04-04T15:53:24;100465.78;;;5.34;46.14
71299;BME280;59083;47.974;21.722;2023-04-04T15:56:25;100461.69;;;5.40;45.62
71299;BME280;59083;47.974;21.722;2023-04-04T15:59:27;100451.34;;;5.47;45.30
71299;BME280;59083;47.974;21.722;2023-04-04T16:02:31;100448.94;;;5.35;46.01
71299;BME280;59083;47.974;21.722;2023-04-04T16:05:32;100459.72;;;5.24;46.31
71299;BME280;59083;47.974;21.722;2023-04-04T16:08:33;100455.06;;;5.18;46.44
71299;BME280;59083;47.974;21.722;2023-04-04T16:11:35;100462.31;;;5.34;46.21